Time;durP1;ratioP1;P1;durP2;ratioP2;P2;SDS_P1;SDS_P2;PMS_P1;PMS_P2;Temp;Humidity;BMP_temperature;BMP_pressure;BME280_temperature;BME280_humidity;BME280_pressure;Samples;Min_cycle;Max_cycle;Signal;HPM_P1;HPM_P2
2021/05/26 00:01:43;;;;;;;8.35;4.18;;;9.40;99.90;;;;;;5041137;28;20041;-65
2021/05/26 00:04:12;;;;;;;9.38;3.95;;;9.30;99.90;;;;;;5031899;28;20444;-65
2021/05/26 00:06:41;;;;;;;6.22;3.88;;;9.30;99.90;;;;;;5045219;28;20073;-65
2021/05/26 00:09:12;;;;;;;8.63;4.13;;;9.30;99.90;;;;;;5045323;28;20049;-65
2021/05/26 00:12:21;;;;;;;9.77;4.07;;;9.20;99.90;;;;;;5053802;28;20047;-65
2021/05/26 00:15:00;;;;;;;8.63;4.18;;;9.20;99.90;;;;;;5041290;28;20189;-65
2021/05/26 00:21:41;;;;;;;6.78;3.90;;;9.10;99.90;;;;;;5041560;28;20071;-64
2021/05/26 00:24:12;;;;;;;6.65;3.85;;;9.10;99.90;;;;;;5053518;28;20489;-65
2021/05/26 00:26:44;;;;;;;8.48;4.15;;;9.00;99.90;;;;;;5036946;28;20033;-66
2021/05/26 00:29:16;;;;;;;5.88;4.05;;;8.90;99.90;;;;;;5033797;28;20073;-64
2021/05/26 00:31:51;;;;;;;9.07;4.97;;;8.90;99.90;;;;;;5043433;28;20120;-65
2021/05/26 00:34:26;;;;;;;6.68;4.18;;;8.90;99.90;;;;;;5033298;28;20477;-65
2021/05/26 00:37:22;;;;;;;9.77;4.40;;;8.80;99.90;;;;;;5050854;28;20053;-65
2021/05/26 00:40:10;;;;;;;8.68;4.13;;;8.80;99.90;;;;;;5036618;28;20045;-66
2021/05/26 00:46:42;;;;;;;8.85;3.92;;;8.70;99.90;;;;;;5039275;28;20052;-65
2021/05/26 00:49:18;;;;;;;6.63;3.85;;;8.80;99.90;;;;;;5053249;28;20420;-65
2021/05/26 00:51:53;;;;;;;8.13;4.55;;;8.70;99.90;;;;;;5033624;28;20041;-64
2021/05/26 01:01:48;;;;;;;5.78;3.40;;;8.70;99.90;;;;;;5045060;28;20048;-64
2021/05/26 01:04:26;;;;;;;5.78;3.85;;;8.70;99.90;;;;;;5033131;28;20054;-65
2021/05/26 01:06:59;;;;;;;6.00;3.45;;;8.70;99.90;;;;;;5051614;28;20041;-65
2021/05/26 01:16:49;;;;;;;6.72;3.10;;;8.60;99.90;;;;;;5036926;28;20103;-65
2021/05/26 01:19:22;;;;;;;9.80;4.47;;;8.60;99.90;;;;;;5037085;28;20037;-64
2021/05/26 01:21:52;;;;;;;5.97;3.90;;;8.60;99.90;;;;;;5042350;28;20119;-64
2021/05/26 01:24:21;;;;;;;5.93;4.13;;;8.60;99.90;;;;;;5050022;28;20087;-65
2021/05/26 01:26:51;;;;;;;5.90;3.58;;;8.60;99.90;;;;;;5041449;28;20056;-65
2021/05/26 01:29:24;;;;;;;6.43;3.97;;;8.50;99.90;;;;;;5056947;28;20045;-65
2021/05/26 01:32:02;;;;;;;10.13;4.40;;;8.40;99.90;;;;;;5056653;28;20033;-65
2021/05/26 01:34:28;;;;;;;7.38;4.03;;;8.40;99.90;;;;;;5055836;28;20148;-65
2021/05/26 01:37:09;;;;;;;8.05;3.92;;;8.50;99.90;;;;;;5052194;28;20048;-65
2021/05/26 01:39:58;;;;;;;7.90;4.32;;;8.30;99.90;;;;;;5056955;28;20041;-65
2021/05/26 01:42:54;;;;;;;8.25;3.75;;;8.30;99.90;;;;;;5035187;28;20037;-65
2021/05/26 01:49:29;;;;;;;5.50;3.55;;;8.30;99.90;;;;;;5052992;28;20133;-65
2021/05/26 01:52:28;;;;;;;6.50;4.18;;;8.20;99.90;;;;;;5040436;28;20057;-65
2021/05/26 01:55:20;;;;;;;6.18;3.90;;;8.20;99.90;;;;;;5036147;28;20143;-65
2021/05/26 02:01:51;;;;;;;8.48;4.05;;;8.30;99.90;;;;;;5038567;28;20028;-64
2021/05/26 02:04:55;;;;;;;8.63;4.53;;;8.30;99.90;;;;;;5036203;28;20053;-64
2021/05/26 02:07:24;;;;;;;9.50;4.80;;;8.40;99.90;;;;;;5049443;28;20090;-65
2021/05/26 02:10:06;;;;;;;5.85;4.35;;;8.50;99.90;;;;;;5053123;28;20061;-65
2021/05/26 02:12:35;;;;;;;7.00;4.85;;;8.50;99.90;;;;;;5051350;28;20499;-65
2021/05/26 02:15:05;;;;;;;8.38;4.78;;;8.60;99.90;;;;;;5034856;28;20038;-65
2021/05/26 02:17:49;;;;;;;7.68;4.85;;;8.60;99.90;;;;;;5044204;28;20052;-65
2021/05/26 02:20:22;;;;;;;7.45;4.72;;;8.70;99.90;;;;;;5049845;28;20036;-65
2021/05/26 02:26:57;;;;;;;8.43;4.13;;;8.80;99.90;;;;;;5038561;28;20347;-65
2021/05/26 02:30:04;;;;;;;6.70;3.58;;;8.90;99.90;;;;;;5035712;28;20460;-65
2021/05/26 02:32:36;;;;;;;7.05;4.15;;;8.90;99.90;;;;;;5054917;28;20037;-65
2021/05/26 02:35:14;;;;;;;5.05;3.58;;;9.00;99.90;;;;;;5055252;28;20404;-65
2021/05/26 02:41:58;;;;;;;4.45;3.03;;;9.00;99.90;;;;;;5049902;28;20035;-65
2021/05/26 02:44:28;;;;;;;7.68;3.72;;;9.10;99.90;;;;;;5054594;28;20407;-65
2021/05/26 02:47:00;;;;;;;6.57;3.63;;;9.10;99.90;;;;;;5054597;28;20044;-65
2021/05/26 02:49:26;;;;;;;6.18;3.90;;;9.20;99.90;;;;;;5042509;28;20041;-64
2021/05/26 02:52:01;;;;;;;7.43;3.53;;;9.10;99.90;;;;;;5054103;28;20040;-65
2021/05/26 02:54:28;;;;;;;6.30;3.65;;;9.20;99.90;;;;;;5054652;28;20469;-65
2021/05/26 02:56:56;;;;;;;6.07;3.65;;;9.20;99.90;;;;;;5047377;28;20118;-65
2021/05/26 03:00:06;;;;;;;6.88;3.58;;;9.20;99.90;;;;;;5067176;28;20580;-65
2021/05/26 03:06:55;;;;;;;6.85;3.53;;;9.30;99.90;;;;;;5042798;28;20114;-65
2021/05/26 03:09:30;;;;;;;8.88;4.65;;;9.30;99.90;;;;;;5046402;28;20037;-65
2021/05/26 03:12:16;;;;;;;8.35;4.00;;;9.30;99.90;;;;;;5050282;28;20076;-64
2021/05/26 03:30:15;;;;;;;5.53;3.72;;;9.50;99.90;;;;;;5035000;28;20056;-65
2021/05/26 03:37:08;;;;;;;6.93;4.63;;;9.50;99.90;;;;;;5034211;28;20068;-66
2021/05/26 03:39:51;;;;;;;10.77;4.85;;;9.40;99.90;;;;;;5054576;28;20049;-64
2021/05/26 03:42:19;;;;;;;7.05;4.60;;;9.40;99.90;;;;;;5053637;28;20037;-65
2021/05/26 03:44:47;;;;;;;8.45;5.40;;;9.50;99.90;;;;;;5054472;28;20041;-65
2021/05/26 03:47:15;;;;;;;8.15;5.30;;;9.50;99.90;;;;;;5047872;28;20045;-65
2021/05/26 03:49:43;;;;;;;8.77;5.82;;;9.50;99.90;;;;;;5019151;28;20059;-65
2021/05/26 03:52:18;;;;;;;9.13;5.65;;;9.50;99.90;;;;;;5034221;28;20099;-66
2021/05/26 03:54:46;;;;;;;11.05;5.78;;;9.50;99.90;;;;;;5042439;28;20056;-65
2021/05/26 03:57:18;;;;;;;11.00;6.13;;;9.50;99.90;;;;;;5042540;28;20041;-65
2021/05/26 04:00:40;;;;;;;9.30;5.75;;;9.50;99.90;;;;;;5038045;28;20382;-64
2021/05/26 04:07:18;;;;;;;7.57;5.30;;;9.50;99.90;;;;;;5033676;28;20443;-65
2021/05/26 04:09:52;;;;;;;7.90;5.10;;;9.60;99.90;;;;;;5034020;28;20123;-65
2021/05/26 04:12:20;;;;;;;11.30;5.65;;;9.60;99.90;;;;;;5052885;28;20127;-64
2021/05/26 04:14:53;;;;;;;8.85;6.07;;;9.60;99.90;;;;;;5053788;28;20401;-65
2021/05/26 04:17:21;;;;;;;9.27;5.90;;;9.60;99.90;;;;;;5034192;28;20049;-64
2021/05/26 04:20:04;;;;;;;9.63;6.15;;;9.70;99.90;;;;;;5051834;28;20071;-65
2021/05/26 04:22:32;;;;;;;7.82;5.32;;;9.70;99.90;;;;;;5051280;28;20052;-65
2021/05/26 04:25:06;;;;;;;9.13;5.63;;;9.70;99.90;;;;;;5038967;28;20049;-65
2021/05/26 04:27:39;;;;;;;7.13;5.07;;;9.70;99.90;;;;;;5035059;28;20065;-65
2021/05/26 04:30:31;;;;;;;7.32;4.88;;;9.70;99.90;;;;;;5047892;28;20041;-65
2021/05/26 04:33:03;;;;;;;10.98;5.07;;;9.70;99.90;;;;;;5038641;28;20107;-65
2021/05/26 04:35:37;;;;;;;9.87;5.57;;;9.70;99.90;;;;;;5048461;28;20041;-65
2021/05/26 04:38:08;;;;;;;6.72;4.80;;;9.70;99.90;;;;;;5065793;28;20349;-64
2021/05/26 05:00:10;;;;;;;12.05;5.25;;;9.90;99.90;;;;;;5052922;28;20094;-65
2021/05/26 05:11:16;;;;;;;9.65;4.72;;;10.10;99.90;;;;;;5032994;28;20033;-65
2021/05/26 05:18:33;;;;;;;7.18;4.15;;;10.10;99.90;;;;;;5037994;28;20044;-65
2021/05/26 05:21:49;;;;;;;6.28;4.40;;;10.10;99.90;;;;;;5039896;28;20374;-65
2021/05/26 05:24:21;;;;;;;8.35;4.43;;;10.10;99.90;;;;;;5038356;28;20072;-65
2021/05/26 05:30:37;;;;;;;9.40;4.63;;;10.20;99.90;;;;;;5036872;28;20103;-65
2021/05/26 05:33:13;;;;;;;9.38;5.00;;;10.20;99.90;;;;;;5040520;28;20045;-65
2021/05/26 05:36:09;;;;;;;10.00;4.82;;;10.30;99.90;;;;;;5048033;28;20484;-65
2021/05/26 05:38:38;;;;;;;8.32;4.40;;;10.20;99.90;;;;;;5044575;28;20051;-65
2021/05/26 05:41:14;;;;;;;8.82;5.97;;;10.20;99.90;;;;;;5038005;28;20053;-65
2021/05/26 05:43:46;;;;;;;11.80;8.32;;;10.30;99.90;;;;;;5049528;28;20037;-65
2021/05/26 05:46:19;;;;;;;8.45;5.28;;;10.20;99.90;;;;;;5031582;28;20061;-65
2021/05/26 05:48:46;;;;;;;7.47;4.85;;;10.20;99.90;;;;;;5049001;28;20485;-65
2021/05/26 05:51:19;;;;;;;10.60;4.90;;;10.20;99.90;;;;;;5036287;28;20037;-65
2021/05/26 05:53:44;;;;;;;7.82;4.57;;;10.30;99.90;;;;;;5047955;28;20061;-65
2021/05/26 05:56:18;;;;;;;10.45;5.10;;;10.20;99.90;;;;;;5036278;28;20060;-65
2021/05/26 05:58:53;;;;;;;8.05;5.60;;;10.30;99.90;;;;;;5046926;28;20104;-65
2021/05/26 06:16:32;;;;;;;10.10;5.85;;;10.40;99.90;;;;;;5037953;28;20160;-66
2021/05/26 06:19:03;;;;;;;;;;;10.50;99.90;;;;;;5045165;28;20053;-65
2021/05/26 06:21:32;;;;;;;9.00;5.68;;;10.50;99.90;;;;;;5038991;28;19921;-65
2021/05/26 06:24:04;;;;;;;12.73;7.60;;;10.50;99.90;;;;;;5053388;28;20053;-65
2021/05/26 06:26:58;;;;;;;17.42;9.00;;;10.50;99.90;;;;;;5055493;28;20105;-68
2021/05/26 06:33:20;;;;;;;16.83;9.15;;;10.70;99.90;;;;;;5040034;28;20086;-67
2021/05/26 06:43:19;;;;;;;14.32;8.73;;;10.90;99.90;;;;;;5038488;28;20511;-70
2021/05/26 06:46:08;;;;;;;18.33;10.27;;;10.90;99.90;;;;;;5049591;28;20140;-67
2021/05/26 06:48:46;;;;;;;24.17;12.05;;;11.00;99.90;;;;;;5035417;28;20041;-70
2021/05/26 06:55:49;;;;;;;20.42;9.05;;;11.00;99.90;;;;;;5043206;28;20103;-68
2021/05/26 06:58:16;;;;;;;17.65;9.93;;;11.00;99.90;;;;;;5054896;28;20071;-68
2021/05/26 07:01:04;;;;;;;12.18;8.07;;;11.00;99.90;;;;;;5035234;28;20052;-71
2021/05/26 07:03:34;;;;;;;11.35;7.00;;;11.10;99.90;;;;;;5046069;28;20045;-68
2021/05/26 07:06:18;;;;;;;14.43;7.82;;;11.10;99.90;;;;;;5050044;28;20050;-69
2021/05/26 07:09:01;;;;;;;10.20;6.43;;;11.20;99.90;;;;;;5041379;28;20072;-70
2021/05/26 07:11:32;;;;;;;11.45;6.93;;;11.30;99.90;;;;;;5054252;28;20041;-69
2021/05/26 07:18:22;;;;;;;13.90;7.70;;;11.40;99.90;;;;;;5047768;28;20045;-68
2021/05/26 07:20:54;;;;;;;9.73;5.78;;;11.50;99.90;;;;;;5037741;28;20037;-68
2021/05/26 07:23:28;;;;;;;8.18;4.88;;;11.40;99.90;;;;;;5054868;28;20041;-68
2021/05/26 07:25:58;;;;;;;4.88;4.10;;;11.50;99.90;;;;;;5037731;28;20060;-69
2021/05/26 07:28:26;;;;;;;6.80;4.38;;;11.50;99.90;;;;;;5033285;28;20485;-68
2021/05/26 07:31:19;;;;;;;8.40;3.83;;;11.50;99.90;;;;;;5054322;28;20044;-70
2021/05/26 07:33:52;;;;;;;4.75;3.45;;;11.50;99.90;;;;;;5048696;28;20042;-71
2021/05/26 07:36:34;;;;;;;6.40;4.00;;;11.50;99.90;;;;;;5038578;28;20148;-67
2021/05/26 07:39:24;;;;;;;5.28;3.67;;;11.60;99.90;;;;;;5034171;28;20034;-68
2021/05/26 07:45:49;;;;;;;5.30;3.70;;;11.70;99.90;;;;;;5034027;28;20436;-68
2021/05/26 07:48:52;;;;;;;4.05;2.97;;;11.90;99.90;;;;;;5032900;28;20041;-69
2021/05/26 07:51:27;;;;;;;6.07;3.03;;;12.00;99.90;;;;;;5036208;28;20396;-67
2021/05/26 07:53:53;;;;;;;6.78;4.13;;;12.10;99.90;;;;;;5037780;28;20052;-68
2021/05/26 08:03:55;;;;;;;3.80;2.40;;;12.20;99.90;;;;;;5033744;28;20092;-67
2021/05/26 08:10:50;;;;;;;2.60;2.08;;;12.30;99.90;;;;;;5033709;28;20554;-67
2021/05/26 08:13:24;;;;;;;4.93;3.40;;;12.40;99.90;;;;;;5033871;28;20073;-69
2021/05/26 08:15:51;;;;;;;5.47;2.60;;;12.40;99.90;;;;;;5053779;28;20033;-68
2021/05/26 08:18:21;;;;;;;4.90;3.03;;;12.40;99.90;;;;;;5033696;28;20164;-68
2021/05/26 08:20:59;;;;;;;3.60;2.28;;;12.40;99.90;;;;;;5053648;28;20048;-67
2021/05/26 08:23:29;;;;;;;4.05;2.25;;;12.50;99.90;;;;;;5045933;28;20052;-70
2021/05/26 08:25:56;;;;;;;3.85;2.40;;;12.60;99.90;;;;;;5052133;28;20041;-69
2021/05/26 08:28:43;;;;;;;4.80;2.42;;;12.50;99.90;;;;;;5033305;28;20577;-67
2021/05/26 08:31:35;;;;;;;3.17;2.10;;;12.50;99.90;;;;;;5036303;28;20375;-68
2021/05/26 08:34:23;;;;;;;2.80;1.90;;;12.40;99.90;;;;;;5033404;28;20056;-70
2021/05/26 08:36:52;;;;;;;2.10;1.40;;;12.30;99.90;;;;;;5033299;28;20045;-69
2021/05/26 08:39:24;;;;;;;2.08;1.33;;;12.10;99.90;;;;;;5046726;28;20041;-66
2021/05/26 08:41:54;;;;;;;2.65;1.50;;;12.10;99.90;;;;;;5053557;28;20041;-67
2021/05/26 08:44:21;;;;;;;3.15;1.52;;;12.00;99.90;;;;;;5053122;28;20132;-67
2021/05/26 08:54:33;;;;;;;2.05;0.80;;;12.30;99.90;;;;;;5027004;28;20690;-71
2021/05/26 08:57:00;;;;;;;1.50;0.90;;;12.30;99.90;;;;;;5034788;28;20056;-69
2021/05/26 08:59:27;;;;;;;2.60;0.85;;;12.40;99.90;;;;;;5047857;28;20140;-69
2021/05/26 09:05:42;;;;;;;1.40;0.70;;;12.50;99.90;;;;;;5049634;28;20078;-71
2021/05/26 09:11:51;;;;;;;0.88;0.45;;;12.40;99.90;;;;;;5033153;28;20437;-70
2021/05/26 09:14:18;;;;;;;1.42;0.65;;;12.50;99.90;;;;;;5034664;28;20053;-69
2021/05/26 09:16:46;;;;;;;2.97;0.77;;;12.50;99.90;;;;;;5046642;28;20041;-69
2021/05/26 09:19:18;;;;;;;1.77;0.60;;;12.50;99.90;;;;;;5037205;28;20503;-70
2021/05/26 09:22:20;;;;;;;1.00;0.50;;;12.50;99.90;;;;;;5047935;28;20119;-69
2021/05/26 09:24:51;;;;;;;0.82;0.40;;;12.50;99.90;;;;;;5033864;28;20370;-69
2021/05/26 09:27:42;;;;;;;1.08;0.57;;;12.50;99.90;;;;;;5042608;28;20049;-68
2021/05/26 09:34:00;;;;;;;1.23;0.40;;;12.60;99.90;;;;;;5045044;28;20082;-71
2021/05/26 09:36:55;;;;;;;0.63;0.35;;;12.70;99.90;;;;;;5053054;28;20045;-69
2021/05/26 09:39:53;;;;;;;1.00;0.50;;;12.80;99.90;;;;;;5043853;28;20053;-71
2021/05/26 09:46:15;;;;;;;0.75;0.40;;;12.90;99.90;;;;;;5044193;28;20037;-70
2021/05/26 09:49:17;;;;;;;1.92;0.50;;;13.00;99.90;;;;;;5050257;28;20123;-70
2021/05/26 09:51:51;;;;;;;1.30;0.35;;;13.20;99.90;;;;;;5049416;28;20064;-70
2021/05/26 09:54:46;;;;;;;0.75;0.40;;;13.30;99.90;;;;;;5056462;28;20119;-71
2021/05/26 09:57:37;;;;;;;0.95;0.60;;;13.30;99.90;;;;;;5036602;28;20058;-69
2021/05/26 10:00:11;;;;;;;1.55;0.60;;;13.30;99.90;;;;;;5041988;28;20072;-67
2021/05/26 10:02:41;;;;;;;;;;;13.30;99.90;;;;;;5043465;28;20041;-71
2021/05/26 10:09:24;;;;;;;0.85;0.40;;;13.30;99.90;;;;;;5036837;28;20133;-72
2021/05/26 10:11:57;;;;;;;0.98;0.38;;;13.20;99.90;;;;;;5038555;28;20124;-70
2021/05/26 10:17:51;;;;;;;0.63;0.30;;;13.30;99.90;;;;;;5050351;28;19958;-72
2021/05/26 10:20:44;;;;;;;0.80;0.40;;;13.30;99.90;;;;;;5041046;28;20038;-70
2021/05/26 10:23:25;;;;;;;0.73;0.50;;;13.40;99.90;;;;;;5057646;28;20049;-71
2021/05/26 10:44:20;;;;;;;0.45;0.38;;;13.70;99.90;;;;;;5035276;28;20107;-71
2021/05/26 10:46:49;;;;;;;1.30;0.60;;;13.70;99.90;;;;;;5045885;28;20120;-71
2021/05/26 10:49:50;;;;;;;1.10;0.70;;;13.70;99.90;;;;;;5052172;28;20184;-71
2021/05/26 11:00:15;;;;;;;1.35;0.73;;;13.80;99.90;;;;;;5054048;28;20491;-71
2021/05/26 11:06:49;;;;;;;1.75;0.63;;;14.00;99.90;;;;;;5054727;28;20432;-69
2021/05/26 11:16:45;;;;;;;3.85;0.77;;;13.90;99.90;;;;;;5041573;28;20727;-70
2021/05/26 11:26:43;;;;;;;3.95;1.02;;;13.70;99.90;;;;;;5034997;28;20060;-69
2021/05/26 11:29:40;;;;;;;1.88;0.90;;;13.70;99.90;;;;;;5041301;28;20041;-70
2021/05/26 11:32:45;;;;;;;2.05;1.02;;;13.70;99.90;;;;;;5038339;28;20052;-71
2021/05/26 11:35:26;;;;;;;4.50;1.10;;;13.90;99.90;;;;;;5045417;28;20477;-70
2021/05/26 11:38:29;;;;;;;3.40;1.25;;;13.90;99.90;;;;;;5035188;28;20048;-70
2021/05/26 11:41:38;;;;;;;2.67;1.35;;;14.00;99.90;;;;;;5034220;28;20142;-70
2021/05/26 11:44:34;;;;;;;1.20;0.85;;;14.20;99.90;;;;;;5034011;28;20129;-68
2021/05/26 11:47:31;;;;;;;2.67;0.90;;;14.40;99.90;;;;;;5047455;28;20057;-66
2021/05/26 11:50:20;;;;;;;3.38;1.00;;;14.50;99.90;;;;;;5054812;28;20045;-69
2021/05/26 11:53:01;;;;;;;4.95;1.10;;;14.60;99.90;;;;;;5050512;28;20045;-70
2021/05/26 11:56:02;;;;;;;2.92;1.20;;;14.70;99.90;;;;;;5053099;28;20369;-72
2021/05/26 12:02:51;;;;;;;1.50;0.80;;;14.70;99.90;;;;;;5045836;28;20035;-70
2021/05/26 12:06:06;;;;;;;3.40;1.30;;;14.50;99.90;;;;;;5053696;28;20041;-70
2021/05/26 12:12:45;;;;;;;5.25;1.48;;;14.30;99.90;;;;;;5043450;28;20086;-69
2021/05/26 12:15:23;;;;;;;3.00;1.00;;;14.10;99.90;;;;;;5048411;28;20073;-71
2021/05/26 12:17:56;;;;;;;2.40;0.82;;;13.90;99.90;;;;;;5037923;28;20053;-71
2021/05/26 12:20:22;;;;;;;;;;;13.80;99.90;;;;;;5053749;28;20384;-71
2021/05/26 12:22:51;;;;;;;2.08;0.77;;;13.70;99.90;;;;;;5053478;28;19944;-71
2021/05/26 12:25:20;;;;;;;1.73;0.80;;;13.60;99.90;;;;;;5053635;28;20395;-69
2021/05/26 12:28:14;;;;;;;4.70;0.98;;;13.50;99.90;;;;;;5067548;28;20044;-72
2021/05/26 12:38:59;;;;;;;1.73;0.75;;;13.00;99.90;;;;;;5037941;28;20094;-71
2021/05/26 12:45:38;;;;;;;2.85;1.00;;;12.80;99.90;;;;;;5048035;28;20416;-72
2021/05/26 12:48:20;;;;;;;0.98;0.57;;;12.70;99.90;;;;;;5050490;28;20503;-72
2021/05/26 12:50:53;;;;;;;2.58;0.90;;;12.70;99.90;;;;;;5035977;28;20045;-70
2021/05/26 13:13:14;;;;;;;3.50;1.67;;;12.60;99.90;;;;;;5056950;28;20062;-70
2021/05/26 13:15:52;;;;;;;2.85;1.23;;;12.70;99.90;;;;;;5048106;28;20049;-70
2021/05/26 13:18:33;;;;;;;2.20;1.20;;;12.70;99.90;;;;;;5045954;28;20118;-69
2021/05/26 13:21:07;;;;;;;4.60;1.17;;;12.70;99.90;;;;;;5042061;28;20045;-73
2021/05/26 13:23:36;;;;;;;5.10;1.27;;;12.70;99.90;;;;;;5051165;28;20052;-71
2021/05/26 13:26:06;;;;;;;3.60;1.20;;;12.70;99.90;;;;;;5045663;28;20046;-72
2021/05/26 13:28:38;;;;;;;6.35;1.80;;;12.70;99.90;;;;;;5035556;28;20460;-73
2021/05/26 13:31:05;;;;;;;3.90;1.38;;;12.70;99.90;;;;;;5036793;28;20484;-71
2021/05/26 13:33:35;;;;;;;2.97;1.13;;;12.70;99.90;;;;;;5044019;28;20053;-70
2021/05/26 13:36:04;;;;;;;5.03;1.20;;;12.80;99.90;;;;;;5047931;28;20049;-70
2021/05/26 13:38:35;;;;;;;3.72;1.10;;;12.80;99.90;;;;;;5044398;28;20132;-72
2021/05/26 13:41:13;;;;;;;5.22;1.50;;;12.90;99.90;;;;;;5035429;28;20478;-72
2021/05/26 13:44:02;;;;;;;1.85;1.10;;;12.80;99.90;;;;;;5042766;28;20051;-71
2021/05/26 13:47:05;;;;;;;4.43;1.52;;;12.70;99.90;;;;;;5036990;28;20045;-70
2021/05/26 13:53:33;;;;;;;5.15;1.35;;;12.70;99.90;;;;;;5036158;28;20116;-69
2021/05/26 13:56:10;;;;;;;3.33;1.50;;;12.60;99.90;;;;;;5040921;28;20111;-68
2021/05/26 13:58:40;;;;;;;2.95;1.40;;;12.60;99.90;;;;;;5033487;28;20062;-69
2021/05/26 14:08:33;;;;;;;6.32;1.65;;;12.30;99.90;;;;;;5052250;28;20048;-69
2021/05/26 14:11:13;;;;;;;4.95;2.15;;;12.20;99.90;;;;;;5048396;28;20037;-70
2021/05/26 14:13:40;;;;;;;4.03;1.40;;;12.00;99.90;;;;;;5041921;28;20049;-70
2021/05/26 14:16:15;;;;;;;3.13;1.40;;;12.00;99.90;;;;;;5054461;28;20044;-67
2021/05/26 14:26:09;;;;;;;3.20;1.60;;;12.00;99.90;;;;;;5039606;28;20036;-68
2021/05/26 14:28:52;;;;;;;5.53;1.48;;;12.00;99.90;;;;;;5027469;28;20455;-69
2021/05/26 14:39:04;;;;;;;7.03;2.65;;;11.80;99.90;;;;;;5043794;28;20073;-69
2021/05/26 14:41:48;;;;;;;4.75;2.05;;;11.80;99.90;;;;;;5050977;28;20041;-67
2021/05/26 14:44:15;;;;;;;4.70;2.65;;;11.80;99.90;;;;;;5037218;28;20152;-68
2021/05/26 14:46:49;;;;;;;5.82;2.38;;;11.80;99.90;;;;;;5050426;28;20053;-70
2021/05/26 14:49:27;;;;;;;5.78;2.25;;;11.70;99.90;;;;;;5036884;28;20042;-69
2021/05/26 14:58:59;;;;;;;4.47;1.83;;;11.70;99.90;;;;;;5043213;28;20053;-68
2021/05/26 15:01:56;;;;;;;4.97;2.30;;;11.70;99.90;;;;;;5035366;28;20044;-73
2021/05/26 15:04:31;;;;;;;3.70;2.05;;;11.80;99.90;;;;;;5032331;28;20052;-69
2021/05/26 15:07:10;;;;;;;4.10;2.28;;;11.70;99.90;;;;;;5036643;28;20064;-70
2021/05/26 15:14:04;;;;;;;5.90;1.77;;;11.60;99.90;;;;;;5034693;28;20031;-69
2021/05/26 15:16:34;;;;;;;4.55;1.65;;;11.70;99.90;;;;;;5043209;28;20044;-69
2021/05/26 15:19:35;;;;;;;4.63;1.50;;;11.60;99.90;;;;;;5039044;28;20200;-66
2021/05/26 15:25:50;;;;;;;2.67;1.40;;;11.60;99.90;;;;;;5034516;28;20564;-66
2021/05/26 15:28:24;;;;;;;2.55;1.45;;;11.50;99.90;;;;;;5036098;28;20513;-66
2021/05/26 15:31:04;;;;;;;3.22;1.45;;;11.50;99.90;;;;;;5039989;28;20045;-66
2021/05/26 15:33:48;;;;;;;4.00;1.33;;;11.50;99.90;;;;;;5036775;28;20049;-66
2021/05/26 15:40:19;;;;;;;2.63;1.20;;;11.50;99.90;;;;;;5034281;28;20044;-63
2021/05/26 15:42:48;;;;;;;2.65;0.93;;;11.50;99.90;;;;;;5033401;28;20111;-65
2021/05/26 15:45:19;;;;;;;3.33;1.55;;;11.50;99.90;;;;;;5034513;28;20048;-65
2021/05/26 15:47:47;;;;;;;3.45;1.25;;;11.40;99.90;;;;;;5054039;28;20045;-66
2021/05/26 15:50:19;;;;;;;4.28;1.63;;;11.40;99.90;;;;;;5043607;28;20040;-66
2021/05/26 15:53:30;;;;;;;6.03;1.42;;;11.40;99.90;;;;;;5048799;28;20124;-65
2021/05/26 15:56:16;;;;;;;1.98;1.23;;;11.40;99.90;;;;;;5035858;28;20046;-67
2021/05/26 16:02:52;;;;;;;1.70;1.20;;;11.40;99.90;;;;;;5034169;28;20064;-66
2021/05/26 16:05:22;;;;;;;4.68;1.95;;;11.40;99.90;;;;;;5053749;28;20047;-66
2021/05/26 16:07:50;;;;;;;3.17;1.50;;;11.40;99.90;;;;;;5035052;28;20041;-65
2021/05/26 16:10:50;;;;;;;4.82;1.83;;;11.40;99.90;;;;;;5053904;28;20170;-66
2021/05/26 16:13:27;;;;;;;3.55;1.35;;;11.40;99.90;;;;;;5037542;28;20150;-65
2021/05/26 16:16:13;;;;;;;3.55;1.75;;;11.40;99.90;;;;;;5040670;28;20039;-65
2021/05/26 16:18:46;;;;;;;5.43;1.75;;;11.40;99.90;;;;;;5049535;28;20056;-64
2021/05/26 16:21:14;;;;;;;2.60;1.67;;;11.40;99.90;;;;;;5048112;28;20045;-65
2021/05/26 16:23:43;;;;;;;3.42;1.63;;;11.40;99.90;;;;;;5052545;28;20476;-65
2021/05/26 16:26:18;;;;;;;5.05;1.70;;;11.40;99.90;;;;;;5043757;28;20120;-65
2021/05/26 16:28:51;;;;;;;4.20;2.13;;;11.30;99.90;;;;;;5048476;28;20037;-66
2021/05/26 16:31:25;;;;;;;;;;;11.30;99.90;;;;;;5053720;28;20082;-66
2021/05/26 16:38:03;;;;;;;6.05;2.60;;;11.30;99.90;;;;;;5038497;28;20040;-67
2021/05/26 16:40:35;;;;;;;7.72;2.10;;;11.20;99.90;;;;;;5034158;28;20045;-66
2021/05/26 16:43:04;;;;;;;3.47;1.52;;;11.20;99.90;;;;;;5061319;28;20051;-66
2021/05/26 16:45:36;;;;;;;3.60;1.42;;;11.10;99.90;;;;;;5049864;28;20410;-66
2021/05/26 16:48:05;;;;;;;8.68;2.25;;;11.10;99.90;;;;;;5051907;28;20041;-65
2021/05/26 16:50:33;;;;;;;7.13;2.15;;;11.10;99.90;;;;;;5040331;28;20068;-66
2021/05/26 16:53:18;;;;;;;5.43;1.73;;;11.10;99.90;;;;;;5033596;28;20068;-67
2021/05/26 16:55:46;;;;;;;4.78;1.50;;;11.10;99.90;;;;;;5044537;28;20437;-66
2021/05/26 17:06:14;;;;;;;4.20;1.50;;;11.10;99.90;;;;;;5037433;28;20125;-67
2021/05/26 17:08:43;;;;;;;3.95;1.70;;;11.00;99.90;;;;;;5037168;28;20051;-67
2021/05/26 17:15:33;;;;;;;4.20;1.75;;;11.10;99.90;;;;;;5038629;28;20036;-65
2021/05/26 17:18:12;;;;;;;4.40;2.00;;;11.10;99.90;;;;;;5048137;28;20041;-64
2021/05/26 17:20:51;;;;;;;3.45;1.70;;;11.10;99.90;;;;;;5051009;28;20071;-64
2021/05/26 17:23:25;;;;;;;2.70;1.45;;;11.10;99.90;;;;;;5039321;28;20048;-63
2021/05/26 17:26:15;;;;;;;7.28;1.75;;;11.10;99.90;;;;;;5050662;28;20033;-64
2021/05/26 17:33:03;;;;;;;5.20;1.70;;;11.00;99.90;;;;;;5042576;28;20109;-65
2021/05/26 17:35:32;;;;;;;4.05;2.00;;;11.00;99.90;;;;;;5032657;28;20052;-67
2021/05/26 17:38:07;;;;;;;4.78;2.08;;;11.10;99.90;;;;;;5032731;28;20441;-66
2021/05/26 17:40:36;;;;;;;6.43;1.80;;;11.00;99.90;;;;;;5047712;28;20124;-66
2021/05/26 17:43:11;;;;;;;5.10;1.50;;;11.00;99.90;;;;;;5052666;28;20083;-67
2021/05/26 17:46:14;;;;;;;4.97;1.83;;;11.00;99.90;;;;;;5051913;28;20175;-66
2021/05/26 17:48:42;;;;;;;5.18;2.00;;;10.90;99.90;;;;;;5035365;28;20045;-68
2021/05/26 17:51:32;;;;;;;6.38;1.98;;;10.90;99.90;;;;;;5048941;28;20041;-67
2021/05/26 17:58:03;;;;;;;7.82;1.83;;;10.90;99.90;;;;;;5038133;28;20045;-67
2021/05/26 18:00:39;;;;;;;6.35;1.75;;;10.90;99.90;;;;;;5044199;28;20037;-66
2021/05/26 18:03:05;;;;;;;4.97;1.73;;;10.90;99.90;;;;;;5056028;28;20082;-67
2021/05/26 18:05:34;;;;;;;6.00;1.38;;;10.90;99.90;;;;;;5054986;28;20065;-66
2021/05/26 18:08:03;;;;;;;4.78;1.77;;;10.80;99.90;;;;;;5056161;28;20041;-68
2021/05/26 18:11:04;;;;;;;5.00;1.65;;;10.90;99.90;;;;;;5054622;28;20419;-69
2021/05/26 18:13:34;;;;;;;5.15;1.83;;;10.90;99.90;;;;;;5034828;28;20045;-69
2021/05/26 18:16:14;;;;;;;6.15;2.00;;;10.80;99.90;;;;;;5051976;28;20100;-66
2021/05/26 18:18:44;;;;;;;4.43;1.98;;;10.80;99.90;;;;;;5021562;28;20053;-66
2021/05/26 18:21:11;;;;;;;5.47;1.90;;;10.80;99.90;;;;;;5050738;28;20041;-67
2021/05/26 18:28:05;;;;;;;5.68;1.80;;;10.70;99.90;;;;;;5040368;28;20060;-67
2021/05/26 18:30:39;;;;;;;6.75;2.13;;;10.70;99.90;;;;;;5054998;28;20541;-68
2021/05/26 18:33:06;;;;;;;6.95;1.88;;;10.80;99.90;;;;;;5055382;28;20476;-69
2021/05/26 18:35:57;;;;;;;4.47;2.17;;;10.80;99.90;;;;;;5039679;28;20038;-67
2021/05/26 18:38:43;;;;;;;5.75;2.20;;;10.70;99.90;;;;;;5046057;28;20041;-67
2021/05/26 18:41:28;;;;;;;5.78;2.00;;;10.70;99.90;;;;;;5038862;28;20040;-67
2021/05/26 18:47:42;;;;;;;8.20;2.45;;;10.70;99.90;;;;;;5040351;28;20049;-66
2021/05/26 18:50:48;;;;;;;6.35;2.80;;;10.70;99.90;;;;;;5047593;28;20040;-68
2021/05/26 18:53:20;;;;;;;11.05;2.63;;;10.70;99.90;;;;;;5037807;28;20125;-67
2021/05/26 18:55:55;;;;;;;4.82;2.30;;;10.70;99.90;;;;;;5051134;28;20077;-68
2021/05/26 18:58:22;;;;;;;4.35;1.98;;;10.70;99.90;;;;;;5043885;28;20045;-76
2021/05/26 19:00:50;;;;;;;7.60;2.47;;;10.70;99.90;;;;;;5037920;28;20049;-69
2021/05/26 19:03:19;;;;;;;6.88;2.78;;;10.70;99.90;;;;;;5049384;28;20045;-70
2021/05/26 19:05:51;;;;;;;5.28;2.08;;;10.70;99.90;;;;;;5034995;28;20103;-70
2021/05/26 19:08:20;;;;;;;4.90;1.90;;;10.70;99.90;;;;;;5034129;28;20136;-66
2021/05/26 19:10:50;;;;;;;10.60;3.10;;;10.70;99.90;;;;;;5053498;28;20168;-67
2021/05/26 19:13:25;;;;;;;8.80;2.47;;;10.70;99.90;;;;;;5034500;28;20053;-68
2021/05/26 19:15:56;;;;;;;6.03;2.08;;;10.70;99.90;;;;;;5039195;28;20592;-67
2021/05/26 19:18:50;;;;;;;7.30;2.42;;;10.60;99.90;;;;;;5040630;28;20485;-67
2021/05/26 19:21:22;;;;;;;;;;;10.60;99.90;;;;;;5042087;28;20124;-67
2021/05/26 19:24:04;;;;;;;6.85;2.60;;;10.60;99.90;;;;;;5027119;28;20024;-66
2021/05/26 19:26:37;;;;;;;9.65;2.22;;;10.50;99.90;;;;;;5034299;28;20096;-66
2021/05/26 19:33:18;;;;;;;4.18;1.90;;;10.50;99.90;;;;;;5038935;28;20467;-66
2021/05/26 19:35:52;;;;;;;6.13;2.50;;;10.50;99.90;;;;;;5034483;28;20052;-67
2021/05/26 19:38:20;;;;;;;3.72;2.03;;;10.50;99.90;;;;;;5047679;28;20056;-67